Aérodrome :
LOGIN :

S'inscrire | Disclaimer

   EN    FR    IT 

 










Légende :    VFR   VFR Marginal   IFR   IFR Intensif   IFR Très Intensif
Visi : 
Plafond : 
>= 8 km
>= 3000ft
5 à 8 km
1000 à 3000 ft
1500m à 5 km
500 à 1000 ft
800 à 1500m
200 à 500 ft
< 800m
< 200 ft
Symboles :   Orages  Brouillard  Fortes neiges  Fortes précipitations  Vent > 20 kt
SIGMETs :   Divers  Orages  Givrage  Turbulence  Onde Orograph.  Cendres Volcan.






- Altitude de l'aérodrome : 124 ft
- Code IATA : AVN


LFMV - Avignon Caumont

DERNIER METAR :
  • 151400Z AUTO 31015KT 280V350 9999 BKN054 BKN066 OVC076 21/10 Q1013 NOSIG

METARs EXPIRÉS :
  • 151330Z AUTO 28011KT 250V310 9999 BKN058 BKN070 20/08 Q1013 NOSIG
  • 151300Z AUTO 30012KT 9999 FEW056 20/07 Q1012 NOSIG
  • 151230Z AUTO 29013KT 250V320 9999 FEW052 21/08 Q1012 NOSIG
  • 151200Z AUTO 28013KT 9999 FEW045 20/09 Q1012 NOSIG
  • 151130Z AUTO 28011KT 250V310 9999 FEW043 20/10 Q1012 NOSIG

TAF TAF LFMV
Valide du 15 à 09h jusqu'au 16 à 09h UTC


150800Z 1509/1609 25007KT 9999 FEW009 OVC030 BKN060
BECMG 1512/1514 31010KT
BECMG 1600/1601 VRB03KT
ATIS : +33 4 90 84 32 84



MET'MAP, la Météo Aéronautique d'un coup d'oeil ! - Copyright ORBIFLY Décembre 2007 - Disclaimer

ORBIFLY MET'MAP TEAM :

Programmation & Développement : Alexandra Zaïnal
Conception & Développement : Baudouin d'Aumeries
Co-Programmation & Développement : Marc-Olivier Méhu
Soutien technique & logistique : Manuel Goepfert

Contact : metmap@orbifly.com




SOURCES & CREDITS :

   NOAA